createdAt,value
2022-11-13T00:01:18.094Z,4.72
2022-11-13T00:03:45.214Z,5.07
2022-11-13T00:06:13.855Z,8.40
2022-11-13T00:08:41.523Z,6.85
2022-11-13T00:11:18.659Z,7.85
2022-11-13T00:13:46.295Z,6.88
2022-11-13T00:16:19.818Z,4.10
2022-11-13T00:18:47.783Z,7.00
2022-11-13T00:21:22.166Z,4.57
2022-11-13T00:23:50.074Z,6.88
2022-11-13T00:26:20.352Z,5.35
2022-11-13T00:28:51.806Z,4.88
2022-11-13T00:31:18.518Z,4.07
2022-11-13T00:34:09.056Z,7.47
2022-11-13T00:36:31.979Z,10.55
2022-11-13T00:38:58.842Z,8.52
2022-11-13T00:41:25.626Z,16.20
2022-11-13T00:43:52.524Z,8.13
2022-11-13T00:46:19.898Z,7.53
2022-11-13T00:48:46.672Z,4.28
2022-11-13T00:51:13.644Z,6.15
2022-11-13T00:53:40.390Z,7.20
2022-11-13T00:56:07.331Z,6.03
2022-11-13T00:58:34.097Z,5.50
2022-11-13T01:01:08.051Z,5.68
2022-11-13T01:03:34.878Z,5.30
2022-11-13T01:06:10.470Z,4.60
2022-11-13T01:08:37.257Z,4.88
2022-11-13T01:11:14.058Z,5.18
2022-11-13T01:13:43.476Z,5.43
2022-11-13T01:16:12.676Z,5.80
2022-11-13T01:18:41.325Z,6.53
2022-11-13T01:21:20.651Z,4.90
2022-11-13T01:23:47.906Z,6.10
2022-11-13T01:26:24.881Z,5.65
2022-11-13T01:28:51.730Z,4.60
2022-11-13T01:31:26.054Z,6.05
2022-11-13T01:33:53.142Z,12.80
2022-11-13T01:36:24.471Z,6.95
2022-11-13T01:41:27.643Z,4.93
2022-11-13T01:43:55.274Z,4.43
2022-11-13T01:46:31.087Z,6.03
2022-11-13T01:49:15.822Z,5.60
2022-11-13T01:52:01.075Z,5.18
2022-11-13T01:54:43.999Z,5.57
2022-11-13T01:57:11.653Z,5.00
2022-11-13T01:59:42.112Z,6.28
2022-11-13T02:02:09.284Z,5.47
2022-11-13T02:04:36.486Z,4.45
2022-11-13T02:07:08.631Z,5.18
2022-11-13T02:09:39.692Z,4.00
2022-11-13T02:12:10.426Z,3.13
2022-11-13T02:14:41.397Z,4.93
2022-11-13T02:17:14.589Z,4.32
2022-11-13T02:19:48.211Z,3.50
2022-11-13T02:22:44.697Z,4.93
2022-11-13T02:25:13.220Z,4.60
2022-11-13T02:27:50.607Z,3.78
2022-11-13T02:30:26.896Z,3.78
2022-11-13T02:32:57.151Z,4.45
2022-11-13T02:35:28.267Z,3.58
2022-11-13T02:37:57.730Z,4.10
2022-11-13T02:40:24.927Z,3.10
2022-11-13T02:42:51.732Z,3.83
2022-11-13T02:45:18.747Z,3.95
2022-11-13T02:47:45.614Z,3.92
2022-11-13T02:50:13.639Z,4.28
2022-11-13T02:52:40.714Z,4.25
2022-11-13T02:55:08.061Z,4.13
2022-11-13T02:57:34.984Z,3.47
2022-11-13T03:00:02.088Z,3.35
2022-11-13T03:02:28.846Z,3.33
2022-11-13T03:05:12.864Z,3.25
2022-11-13T03:07:40.973Z,3.72
2022-11-13T03:10:08.882Z,2.50
2022-11-13T03:12:36.066Z,3.35
2022-11-13T03:15:03.760Z,3.80
2022-11-13T03:17:34.662Z,3.08
2022-11-13T03:20:01.813Z,3.58
2022-11-13T03:22:28.667Z,3.67
2022-11-13T03:24:55.391Z,3.22
2022-11-13T03:27:22.358Z,4.00
2022-11-13T03:29:49.294Z,3.80
2022-11-13T03:32:16.190Z,4.15
2022-11-13T03:34:42.979Z,4.40
2022-11-13T03:37:09.751Z,4.37
2022-11-13T03:39:36.537Z,3.70
2022-11-13T03:42:03.274Z,3.63
2022-11-13T03:44:30.024Z,4.82
2022-11-13T03:47:09.660Z,5.75
2022-11-13T03:50:20.345Z,4.05
2022-11-13T03:53:08.446Z,5.13
2022-11-13T03:56:12.430Z,4.80
2022-11-13T03:59:09.761Z,4.50
2022-11-13T04:02:06.429Z,4.18
2022-11-13T04:05:04.649Z,4.03
2022-11-13T04:07:45.982Z,3.70
2022-11-13T04:11:02.670Z,4.10
2022-11-13T04:13:40.339Z,4.07
2022-11-13T04:16:59.558Z,4.32
2022-11-13T04:19:31.630Z,4.32
2022-11-13T04:21:58.756Z,3.97
2022-11-13T04:24:31.658Z,4.20
2022-11-13T04:27:03.133Z,5.20
2022-11-13T04:29:38.468Z,4.00
2022-11-13T04:32:15.529Z,5.18
2022-11-13T04:34:48.506Z,3.97
2022-11-13T04:37:23.903Z,3.83
2022-11-13T04:39:50.649Z,3.20
2022-11-13T04:42:36.266Z,3.50
2022-11-13T04:45:03.154Z,3.47
2022-11-13T04:47:29.899Z,3.15
2022-11-13T04:49:56.635Z,4.05
2022-11-13T04:52:23.390Z,3.38
2022-11-13T04:54:50.130Z,3.53
2022-11-13T04:57:16.867Z,3.70
2022-11-13T04:59:43.596Z,4.07
2022-11-13T05:02:10.342Z,3.33
2022-11-13T05:04:37.078Z,3.65
2022-11-13T05:07:03.905Z,3.33
2022-11-13T05:09:30.712Z,4.07
2022-11-13T05:11:57.457Z,3.38
2022-11-13T05:14:24.251Z,4.43
2022-11-13T05:16:51.622Z,4.43
2022-11-13T05:19:18.518Z,4.00
2022-11-13T05:21:45.365Z,4.57
2022-11-13T05:24:12.146Z,4.95
2022-11-13T05:26:39.862Z,4.13
2022-11-13T05:29:06.916Z,3.05
2022-11-13T05:31:33.934Z,3.47
2022-11-13T05:34:05.481Z,3.03
2022-11-13T05:36:36.914Z,4.30
2022-11-13T05:41:59.739Z,4.47
2022-11-13T05:44:26.589Z,4.47
2022-11-13T05:46:53.309Z,5.07
2022-11-13T05:49:20.153Z,4.90
2022-11-13T05:51:46.874Z,5.95
2022-11-13T05:54:13.662Z,3.97
2022-11-13T05:56:40.530Z,5.75
2022-11-13T05:59:07.507Z,3.33
2022-11-13T06:01:37.787Z,4.10
2022-11-13T06:04:06.747Z,3.70
2022-11-13T06:06:34.220Z,3.38
2022-11-13T06:09:04.142Z,4.63
2022-11-13T06:11:31.339Z,3.65
2022-11-13T06:13:59.482Z,3.25
2022-11-13T06:16:35.473Z,4.22
2022-11-13T06:19:06.143Z,5.70
2022-11-13T06:21:35.622Z,4.70
2022-11-13T06:24:02.635Z,3.92
2022-11-13T06:26:38.777Z,3.92
2022-11-13T06:29:07.478Z,3.72
2022-11-13T06:31:36.626Z,4.05
2022-11-13T06:34:04.144Z,4.32
2022-11-13T06:36:34.543Z,5.40
2022-11-13T06:39:01.668Z,2.97
2022-11-13T06:41:31.245Z,4.80
2022-11-13T06:44:02.610Z,4.95
2022-11-13T06:46:31.029Z,3.85
2022-11-13T06:48:58.271Z,4.57
2022-11-13T06:51:28.953Z,3.20
2022-11-13T06:53:56.854Z,3.67
2022-11-13T06:56:25.019Z,5.75
2022-11-13T06:58:52.281Z,5.13
2022-11-13T07:01:24.840Z,5.65
2022-11-13T07:03:51.804Z,22.00
2022-11-13T07:06:21.948Z,5.35
2022-11-13T07:08:49.647Z,4.88
2022-11-13T07:11:19.958Z,4.85
2022-11-13T07:13:47.534Z,5.32
2022-11-13T07:16:17.771Z,4.65
2022-11-13T07:18:51.374Z,5.22
2022-11-13T07:21:18.617Z,5.20
2022-11-13T07:23:49.109Z,4.35
2022-11-13T07:26:16.333Z,7.32
2022-11-13T07:28:43.213Z,4.45
2022-11-13T07:31:12.926Z,4.50
2022-11-13T07:33:39.689Z,3.92
2022-11-13T07:36:08.217Z,4.72
2022-11-13T07:38:35.129Z,5.53
2022-11-13T07:41:02.632Z,4.90
2022-11-13T07:43:29.594Z,6.93
2022-11-13T07:45:59.191Z,4.75
2022-11-13T07:48:30.375Z,4.53
2022-11-13T07:53:28.466Z,12.18
2022-11-13T07:55:55.232Z,11.20
2022-11-13T07:58:22.022Z,25.80
2022-11-13T08:00:48.815Z,12.77
2022-11-13T08:03:18.610Z,11.23
2022-11-13T08:05:45.400Z,8.38
2022-11-13T08:08:14.339Z,5.70
2022-11-13T08:10:41.918Z,5.38
2022-11-13T08:13:10.313Z,4.90
2022-11-13T08:15:37.207Z,4.30
2022-11-13T08:18:05.214Z,4.82
2022-11-13T08:20:32.544Z,4.15
2022-11-13T08:23:01.825Z,4.63
2022-11-13T08:25:30.786Z,4.03
2022-11-13T08:27:57.626Z,4.60
2022-11-13T08:30:26.714Z,4.60
2022-11-13T08:32:53.619Z,4.15
2022-11-13T08:35:25.237Z,4.40
2022-11-13T08:38:01.276Z,4.03
2022-11-13T08:40:28.104Z,6.22
2022-11-13T08:43:02.805Z,5.55
2022-11-13T08:45:30.894Z,6.25
2022-11-13T08:48:02.532Z,9.50
2022-11-13T08:50:30.598Z,6.10
2022-11-13T08:53:00.137Z,4.30
2022-11-13T08:55:27.969Z,4.43
2022-11-13T08:57:58.269Z,4.18
2022-11-13T09:00:25.179Z,8.85
2022-11-13T09:02:56.679Z,6.28
2022-11-13T09:07:51.938Z,4.60
2022-11-13T09:10:18.859Z,4.00
2022-11-13T09:12:45.623Z,5.10
2022-11-13T09:15:12.739Z,4.93
2022-11-13T09:17:39.606Z,4.85
2022-11-13T09:20:11.239Z,4.97
2022-11-13T09:22:40.254Z,4.72
2022-11-13T09:25:07.547Z,5.35
2022-11-13T09:27:34.466Z,5.00
2022-11-13T09:30:01.213Z,5.85
2022-11-13T09:32:27.969Z,4.90
2022-11-13T09:34:54.750Z,5.22
2022-11-13T09:37:21.500Z,4.72
2022-11-13T09:39:48.574Z,5.55
2022-11-13T09:42:27.894Z,5.30
2022-11-13T09:45:17.072Z,5.53
2022-11-13T09:47:46.531Z,4.95
2022-11-13T09:50:30.391Z,5.35
2022-11-13T09:52:57.962Z,4.63
2022-11-13T09:55:50.820Z,5.68
2022-11-13T09:58:57.341Z,4.85
2022-11-13T10:02:24.403Z,4.97
2022-11-13T10:05:24.195Z,4.35
2022-11-13T10:08:42.724Z,4.80
2022-11-13T10:15:41.342Z,5.25
2022-11-13T10:18:32.456Z,4.90
2022-11-13T10:21:28.066Z,5.30
2022-11-13T10:24:00.131Z,4.85
2022-11-13T10:26:30.556Z,5.03
2022-11-13T10:29:20.742Z,5.50
2022-11-13T10:31:53.119Z,5.00
2022-11-13T10:34:21.275Z,5.07
2022-11-13T10:37:15.578Z,5.15
2022-11-13T10:39:46.415Z,5.32
2022-11-13T10:42:32.202Z,5.65
2022-11-13T10:45:08.247Z,5.22
2022-11-13T10:48:08.960Z,5.53
2022-11-13T10:50:38.810Z,4.85
2022-11-13T10:53:19.991Z,5.10
2022-11-13T10:55:57.165Z,5.55
2022-11-13T10:58:28.142Z,5.63
2022-11-13T11:00:56.964Z,5.60
2022-11-13T11:03:27.315Z,6.22
2022-11-13T11:06:05.959Z,5.72
2022-11-13T11:08:35.759Z,5.32
2022-11-13T11:11:37.166Z,6.50
2022-11-13T11:14:28.519Z,6.03
2022-11-13T11:16:59.461Z,6.07
2022-11-13T11:19:36.106Z,6.20
2022-11-13T11:22:16.087Z,6.05
2022-11-13T11:25:27.334Z,6.65
2022-11-13T11:28:17.242Z,5.50
2022-11-13T11:30:55.250Z,6.07
2022-11-13T11:33:36.203Z,6.05
2022-11-13T11:36:31.988Z,5.60
2022-11-13T11:39:06.354Z,6.25
2022-11-13T11:41:43.557Z,6.47
2022-11-13T11:44:36.255Z,6.95
2022-11-13T11:47:16.563Z,6.32
2022-11-13T11:49:45.449Z,7.32
2022-11-13T11:52:46.859Z,6.72
2022-11-13T11:55:44.234Z,7.72
2022-11-13T11:58:52.447Z,7.38
2022-11-13T12:01:53.084Z,6.68
2022-11-13T12:04:58.580Z,7.13
2022-11-13T12:07:53.407Z,7.57
2022-11-13T12:10:48.900Z,6.90
2022-11-13T12:14:01.345Z,16.02
2022-11-13T12:17:18.173Z,9.70
2022-11-13T12:20:32.613Z,10.77
2022-11-13T12:23:22.641Z,8.25
2022-11-13T12:26:14.122Z,8.18
2022-11-13T12:29:29.419Z,9.75
2022-11-13T12:32:57.911Z,8.88
2022-11-13T12:35:29.413Z,7.43
2022-11-13T12:38:08.386Z,20.70
2022-11-13T12:40:56.070Z,10.63
2022-11-13T12:44:04.025Z,9.57
2022-11-13T12:46:41.924Z,11.15
2022-11-13T12:49:37.637Z,9.98
2022-11-13T12:52:21.075Z,14.30
2022-11-13T12:54:48.635Z,19.60
2022-11-13T12:57:27.138Z,13.90
2022-11-13T13:00:00.757Z,18.02
2022-11-13T13:02:58.519Z,20.30
2022-11-13T13:06:08.575Z,10.88
2022-11-13T13:09:08.590Z,19.92
2022-11-13T13:12:07.591Z,16.08
2022-11-13T13:14:46.622Z,18.27
2022-11-13T13:17:21.657Z,17.52
2022-11-13T13:20:20.656Z,15.40
2022-11-13T13:23:08.414Z,17.63
2022-11-13T13:25:39.743Z,18.92
2022-11-13T13:28:21.673Z,14.75
2022-11-13T13:31:27.784Z,10.90
2022-11-13T13:34:55.166Z,14.98
2022-11-13T13:37:50.373Z,16.55
2022-11-13T13:40:59.919Z,15.00
2022-11-13T13:44:15.681Z,15.18
2022-11-13T13:46:43.985Z,15.55
2022-11-13T13:49:51.584Z,15.25
2022-11-13T13:52:29.075Z,15.73
2022-11-13T13:55:00.190Z,14.75
2022-11-13T13:57:30.720Z,12.98
2022-11-13T13:59:58.470Z,15.68
2022-11-13T14:02:25.868Z,14.15
2022-11-13T14:04:54.863Z,16.70
2022-11-13T14:07:29.061Z,15.75
2022-11-13T14:10:31.357Z,15.10
2022-11-13T14:13:01.787Z,14.05
2022-11-13T14:15:50.604Z,14.83
2022-11-13T14:18:25.024Z,16.02
2022-11-13T14:20:56.369Z,17.50
2022-11-13T14:23:38.072Z,14.65
2022-11-13T14:26:06.693Z,14.95
2022-11-13T14:28:52.360Z,16.50
2022-11-13T14:31:26.885Z,15.25
2022-11-13T14:33:54.305Z,17.85
2022-11-13T14:36:34.971Z,17.73
2022-11-13T14:39:02.165Z,15.32
2022-11-13T14:41:35.822Z,15.13
2022-11-13T14:44:03.840Z,14.25
2022-11-13T14:46:43.096Z,15.15
2022-11-13T14:49:35.625Z,15.13
2022-11-13T14:52:03.141Z,13.57
2022-11-13T14:55:08.298Z,13.68
2022-11-13T14:57:25.547Z,12.00
2022-11-13T14:59:52.706Z,15.85
2022-11-13T15:02:20.502Z,13.25
2022-11-13T15:04:47.648Z,18.08
2022-11-13T15:07:32.720Z,13.70
2022-11-13T15:10:01.164Z,13.30
2022-11-13T15:12:28.642Z,16.98
2022-11-13T15:14:58.257Z,15.93
2022-11-13T15:17:28.236Z,15.38
2022-11-13T15:20:01.339Z,16.02
2022-11-13T15:22:32.368Z,17.63
2022-11-13T15:25:01.898Z,17.67
2022-11-13T15:27:32.530Z,16.52
2022-11-13T15:29:59.682Z,16.15
2022-11-13T15:32:29.170Z,17.15
2022-11-13T15:34:56.455Z,56.22
2022-11-13T15:37:23.682Z,19.85
2022-11-13T15:39:53.829Z,18.92
2022-11-13T15:42:35.682Z,17.73
2022-11-13T15:45:06.216Z,20.23
2022-11-13T15:47:36.740Z,19.13
2022-11-13T15:50:14.515Z,16.33
2022-11-13T15:52:48.394Z,16.58
2022-11-13T15:55:32.229Z,15.18
2022-11-13T15:58:06.140Z,17.73
2022-11-13T16:00:36.866Z,14.38
2022-11-13T16:03:11.198Z,15.60
2022-11-13T16:05:38.539Z,15.65
2022-11-13T16:08:12.802Z,15.77
2022-11-13T16:10:39.534Z,17.08
2022-11-13T16:13:06.282Z,14.77
2022-11-13T16:15:33.069Z,14.90
2022-11-13T16:18:01.233Z,15.73
2022-11-13T16:20:27.998Z,12.95
2022-11-13T16:22:55.068Z,12.73
2022-11-13T16:25:22.759Z,13.27
2022-11-13T16:27:50.977Z,13.20
2022-11-13T16:30:21.562Z,11.80
2022-11-13T16:32:48.841Z,12.25
2022-11-13T16:35:18.083Z,14.63
2022-11-13T16:37:45.159Z,14.10
2022-11-13T16:40:25.795Z,13.18
2022-11-13T16:42:53.765Z,14.32
2022-11-13T16:45:21.956Z,14.35
2022-11-13T16:47:50.453Z,13.80
2022-11-13T16:50:18.490Z,13.77
2022-11-13T16:52:45.311Z,13.43
2022-11-13T16:55:12.182Z,11.57
2022-11-13T16:57:40.053Z,15.77
2022-11-13T17:00:09.132Z,17.83
2022-11-13T17:02:36.012Z,14.57
2022-11-13T17:05:02.919Z,13.60
2022-11-13T17:07:29.872Z,14.57
2022-11-13T17:10:24.278Z,14.88
2022-11-13T17:12:43.415Z,11.60
2022-11-13T17:15:10.954Z,14.98
2022-11-13T17:17:37.705Z,17.47
2022-11-13T17:20:05.076Z,13.45
2022-11-13T17:22:31.820Z,13.95
2022-11-13T17:24:58.577Z,20.27
2022-11-13T17:27:25.352Z,26.70
2022-11-13T17:29:52.086Z,14.68
2022-11-13T17:32:38.398Z,17.77
2022-11-13T17:35:06.072Z,15.57
2022-11-13T17:37:32.852Z,14.10
2022-11-13T17:39:59.671Z,14.15
2022-11-13T17:42:28.479Z,15.35
2022-11-13T17:44:55.516Z,20.85
2022-11-13T17:47:22.607Z,16.92
2022-11-13T17:49:49.438Z,15.45
2022-11-13T17:52:16.254Z,30.90
2022-11-13T17:54:43.000Z,20.77
2022-11-13T17:57:10.300Z,17.27
2022-11-13T17:59:37.151Z,20.55
2022-11-13T18:02:04.448Z,19.02
2022-11-13T18:04:31.224Z,27.80
2022-11-13T18:06:58.533Z,36.67
2022-11-13T18:09:25.364Z,21.25
2022-11-13T18:11:52.138Z,16.85
2022-11-13T18:14:18.951Z,13.20
2022-11-13T18:16:45.883Z,14.40
2022-11-13T18:19:13.149Z,14.35
2022-11-13T18:21:40.782Z,14.98
2022-11-13T18:24:16.620Z,13.85
2022-11-13T18:26:43.969Z,13.88
2022-11-13T18:29:10.824Z,14.30
2022-11-13T18:31:38.022Z,14.38
2022-11-13T18:34:06.770Z,13.93
2022-11-13T18:36:34.606Z,16.77
2022-11-13T18:39:03.001Z,12.82
2022-11-13T18:41:30.714Z,12.57
2022-11-13T18:43:57.646Z,13.15
2022-11-13T18:46:25.069Z,14.05
2022-11-13T18:48:52.177Z,13.38
2022-11-13T18:51:22.883Z,16.85
2022-11-13T18:53:51.655Z,14.75
2022-11-13T18:56:27.978Z,14.27
2022-11-13T18:58:56.983Z,14.50
2022-11-13T19:01:27.745Z,16.17
2022-11-13T19:04:21.700Z,14.93
2022-11-13T19:06:45.879Z,13.55
2022-11-13T19:09:18.177Z,13.88
2022-11-13T19:16:02.455Z,15.10
2022-11-13T19:18:48.579Z,16.15
2022-11-13T19:21:29.399Z,14.75
2022-11-13T19:23:56.762Z,15.23
2022-11-13T19:26:23.558Z,21.42
2022-11-13T19:28:53.169Z,16.23
2022-11-13T19:31:26.325Z,15.38
2022-11-13T19:34:02.081Z,16.70
2022-11-13T19:36:30.941Z,15.65
2022-11-13T19:38:58.620Z,16.00
2022-11-13T19:41:28.348Z,16.73
2022-11-13T19:43:57.743Z,15.25
2022-11-13T19:46:24.489Z,14.48
2022-11-13T19:48:52.397Z,14.77
2022-11-13T19:51:24.581Z,14.00
2022-11-13T19:53:58.507Z,14.68
2022-11-13T19:56:28.460Z,16.95
2022-11-13T19:58:56.185Z,13.73
2022-11-13T20:01:31.712Z,15.27
2022-11-13T20:04:01.611Z,16.45
2022-11-13T20:06:31.630Z,16.30
2022-11-13T20:09:00.032Z,15.48
2022-11-13T20:11:27.069Z,17.13
2022-11-13T20:13:55.113Z,17.55
2022-11-13T20:16:23.378Z,14.13
2022-11-13T20:18:50.853Z,18.40
2022-11-13T20:21:30.292Z,17.60
2022-11-13T20:23:59.005Z,14.52
2022-11-13T20:26:26.222Z,16.95
2022-11-13T20:28:52.984Z,16.17
2022-11-13T20:31:23.221Z,13.48
2022-11-13T20:33:52.402Z,14.27
2022-11-13T20:36:19.690Z,13.20
2022-11-13T20:38:55.746Z,12.40
2022-11-13T20:41:24.107Z,10.57
2022-11-13T20:43:52.768Z,10.10
2022-11-13T20:46:21.095Z,9.18
2022-11-13T20:48:48.665Z,9.05
2022-11-13T20:51:18.246Z,8.63
2022-11-13T20:53:45.123Z,9.95
2022-11-13T20:56:13.152Z,9.55
2022-11-13T20:58:40.331Z,10.80
2022-11-13T21:01:19.940Z,9.80
2022-11-13T21:03:47.553Z,9.88
2022-11-13T21:06:20.784Z,10.00
2022-11-13T21:08:47.963Z,9.43
2022-11-13T21:11:18.997Z,9.68
2022-11-13T21:13:47.337Z,10.52
2022-11-13T21:16:14.118Z,10.50
2022-11-13T21:18:41.098Z,9.77
2022-11-13T21:21:10.658Z,12.48
2022-11-13T21:23:37.659Z,17.35
2022-11-13T21:26:07.154Z,17.70
2022-11-13T21:28:34.481Z,10.40
2022-11-13T21:31:21.629Z,8.75
2022-11-13T21:33:50.029Z,12.43
2022-11-13T21:36:21.822Z,11.85
2022-11-13T21:38:53.549Z,9.60
2022-11-13T21:41:21.984Z,10.10
2022-11-13T21:44:05.694Z,10.23
2022-11-13T21:46:35.502Z,9.77
2022-11-13T21:49:12.004Z,10.30
2022-11-13T21:51:41.640Z,11.48
2022-11-13T21:54:09.254Z,20.02
2022-11-13T21:56:38.312Z,16.23
2022-11-13T21:59:06.213Z,12.73
2022-11-13T22:01:38.161Z,14.35
2022-11-13T22:04:06.260Z,18.13
2022-11-13T22:06:39.641Z,15.18
2022-11-13T22:09:14.516Z,16.13
2022-11-13T22:11:41.876Z,15.90
2022-11-13T22:14:08.933Z,12.90
2022-11-13T22:16:40.507Z,13.93
2022-11-13T22:19:13.022Z,12.85
2022-11-13T22:21:40.133Z,10.77
2022-11-13T22:24:07.951Z,9.90
2022-11-13T22:26:41.561Z,13.30
2022-11-13T22:29:08.668Z,11.43
2022-11-13T22:31:36.552Z,15.35
2022-11-13T22:34:04.047Z,14.43
2022-11-13T22:36:36.306Z,10.55
2022-11-13T22:39:05.222Z,22.60
2022-11-13T22:41:34.909Z,23.58
2022-11-13T22:44:08.050Z,14.82
2022-11-13T22:46:36.238Z,25.00
2022-11-13T22:49:05.378Z,35.40
2022-11-13T22:51:40.963Z,34.80
2022-11-13T22:54:11.190Z,55.28
2022-11-13T22:56:40.138Z,19.83
2022-11-13T22:59:10.608Z,8.05
2022-11-13T23:01:39.672Z,12.90
2022-11-13T23:04:11.744Z,15.05
2022-11-13T23:06:38.653Z,7.28
2022-11-13T23:09:06.290Z,9.40
2022-11-13T23:11:40.069Z,11.85
2022-11-13T23:14:12.125Z,14.90
2022-11-13T23:16:39.968Z,14.82
2022-11-13T23:19:07.203Z,15.02
2022-11-13T23:21:34.319Z,15.57
2022-11-13T23:24:01.126Z,10.30
2022-11-13T23:26:28.460Z,12.90
2022-11-13T23:28:55.714Z,15.23
2022-11-13T23:31:23.121Z,8.02
2022-11-13T23:33:50.074Z,8.60
2022-11-13T23:36:18.018Z,11.75
2022-11-13T23:38:45.381Z,13.60
2022-11-13T23:41:12.513Z,9.20
2022-11-13T23:44:08.224Z,8.75
2022-11-13T23:46:26.148Z,8.82
2022-11-13T23:48:52.886Z,8.85
2022-11-13T23:51:19.641Z,9.30
2022-11-13T23:53:46.410Z,8.63
2022-11-13T23:56:13.150Z,7.10
2022-11-13T23:58:39.868Z,9.60
